메인 페이지
METAR-TAF:

METAR-TAF

공항 :

Knox County Regional Airport

Rockland, 메인, 미국

위도: 44-04N, 경도: 069-06W, 고도: 17m

현재 날씨관측

예보는 16분 전, 02:56시(UTC)에 발표되었습니다.
남서15kt, 순간 최대 풍속 23kt
온도 17°C
습도 100%
기압 1011 hPa
시정: 9.7km
고도 300ft 상공 흐림
박무

METAR: KRKD 300256Z AUTO 22015G23KT 6SM BR OVC003 17/17 A2984 RMK AO2 PK WND 21028/0238 SLP104 T01720167 58002

시각: 23:12 (03:12 UTC)

예보

예보는 1 시간 7분 전, 02:05시(UTC)에 발표되었습니다.
예보 대상 시간: 30일 02시부터 30일 24시까지 (UTC)
남서15kt, 순간 최대 풍속 25kt
시정: 9.7km
고도 300ft 상공 흐림
박무
30일 0400시부터 (UTC)
남남서13kt, 순간 최대 풍속 21kt
시정: 0.4km
고도 300ft 상공 흐림
안개
30일 1300시부터 (UTC)
남서12kt, 순간 최대 풍속 20kt
시정: 10km
고도 700ft 상공 흐림
시계 내 소나기
30일 1500시부터 (UTC)
남서11kt
시정: 10km
고도 5000ft 상공 구름 보통
시계 내 소나기

TAF: KRKD 300205Z 3002/3024 22015G25KT 6SM BR OVC003 FM300400 21013G21KT 1/4SM FG OVC003 FM301300 22012G20KT P6SM VCSH OVC007 FM301500 22011KT P6SM VCSH SCT050 AMD LTD TO CLD VIS AND WIND

4,000개 이상의 공항 관측 자료 및 예보 (METAR 및 TAF 보고).

지도상에서 검색 가능한 기상관측소가 노란 점과 빨간 점으로 표시되어 있습니다.

기상관측소 명을 보려면 표시 위로 마우스를 이동하세요.

날씨 관측과 예보를 보려면 클릭하세요.

지도 변경 : 확대하려면 엑스 표시가 있는 녹색 버튼, 축소하려면 빼기 표시가 있는 녹색 버튼, 다음 페이지의 지도를 보려면 녹색 화살표를 클릭하세요.


METAR-TAF: